sensor_id;sensor_type;location;lat;lon;timestamp;temperature;humidity
26326;DHT22;14032;52.510;7.342;2023-04-15T00:01:26;7.20;99.90
26326;DHT22;14032;52.510;7.342;2023-04-15T00:03:52;7.20;99.90
26326;DHT22;14032;52.510;7.342;2023-04-15T00:06:18;7.20;99.90
26326;DHT22;14032;52.510;7.342;2023-04-15T00:08:45;7.10;99.90
26326;DHT22;14032;52.510;7.342;2023-04-15T00:11:10;7.00;99.90
26326;DHT22;14032;52.510;7.342;2023-04-15T00:13:37;7.00;99.90
26326;DHT22;14032;52.510;7.342;2023-04-15T00:16:02;6.90;99.90
26326;DHT22;14032;52.510;7.342;2023-04-15T00:18:28;6.90;99.90
26326;DHT22;14032;52.510;7.342;2023-04-15T00:20:54;6.90;99.90
26326;DHT22;14032;52.510;7.342;2023-04-15T00:23:19;6.80;99.90
26326;DHT22;14032;52.510;7.342;2023-04-15T00:25:45;6.80;99.90
26326;DHT22;14032;52.510;7.342;2023-04-15T00:28:11;6.70;99.90
26326;DHT22;14032;52.510;7.342;2023-04-15T00:30:36;6.70;99.90
26326;DHT22;14032;52.510;7.342;2023-04-15T00:33:02;6.70;99.90
26326;DHT22;14032;52.510;7.342;2023-04-15T00:35:28;6.70;99.90
26326;DHT22;14032;52.510;7.342;2023-04-15T00:37:53;6.70;99.90
26326;DHT22;14032;52.510;7.342;2023-04-15T00:40:19;6.70;99.90
26326;DHT22;14032;52.510;7.342;2023-04-15T00:42:45;6.60;99.90
26326;DHT22;14032;52.510;7.342;2023-04-15T00:45:11;6.60;99.90
26326;DHT22;14032;52.510;7.342;2023-04-15T00:47:37;6.50;99.90
26326;DHT22;14032;52.510;7.342;2023-04-15T00:50:03;6.50;99.90
26326;DHT22;14032;52.510;7.342;2023-04-15T00:52:29;6.50;99.90
26326;DHT22;14032;52.510;7.342;2023-04-15T00:54:54;6.50;99.90
26326;DHT22;14032;52.510;7.342;2023-04-15T00:57:20;6.50;99.90
26326;DHT22;14032;52.510;7.342;2023-04-15T00:59:46;6.40;99.90
26326;DHT22;14032;52.510;7.342;2023-04-15T01:02:12;6.30;99.90
26326;DHT22;14032;52.510;7.342;2023-04-15T01:04:37;6.20;99.90
26326;DHT22;14032;52.510;7.342;2023-04-15T01:07:03;6.30;99.90
26326;DHT22;14032;52.510;7.342;2023-04-15T01:09:28;6.30;99.90
26326;DHT22;14032;52.510;7.342;2023-04-15T01:11:55;6.30;99.90
26326;DHT22;14032;52.510;7.342;2023-04-15T01:14:21;6.20;99.90
26326;DHT22;14032;52.510;7.342;2023-04-15T01:16:46;6.20;99.90
26326;DHT22;14032;52.510;7.342;2023-04-15T01:19:12;6.20;99.90
26326;DHT22;14032;52.510;7.342;2023-04-15T01:21:38;6.20;99.90
26326;DHT22;14032;52.510;7.342;2023-04-15T01:24:05;6.20;99.90
26326;DHT22;14032;52.510;7.342;2023-04-15T01:26:33;6.10;99.90
26326;DHT22;14032;52.510;7.342;2023-04-15T01:29:01;6.10;99.90
26326;DHT22;14032;52.510;7.342;2023-04-15T01:31:27;6.10;99.90
26326;DHT22;14032;52.510;7.342;2023-04-15T01:33:52;6.00;99.90
26326;DHT22;14032;52.510;7.342;2023-04-15T01:36:18;6.00;99.90
26326;DHT22;14032;52.510;7.342;2023-04-15T01:38:43;6.00;99.90
26326;DHT22;14032;52.510;7.342;2023-04-15T01:41:09;6.00;99.90
26326;DHT22;14032;52.510;7.342;2023-04-15T01:43:34;6.00;99.90
26326;DHT22;14032;52.510;7.342;2023-04-15T01:46:01;5.90;99.90
26326;DHT22;14032;52.510;7.342;2023-04-15T01:48:27;5.90;99.90
26326;DHT22;14032;52.510;7.342;2023-04-15T01:50:53;5.90;99.90
26326;DHT22;14032;52.510;7.342;2023-04-15T01:53:18;5.90;99.90
26326;DHT22;14032;52.510;7.342;2023-04-15T01:55:44;5.90;99.90
26326;DHT22;14032;52.510;7.342;2023-04-15T01:58:10;5.90;99.90
26326;DHT22;14032;52.510;7.342;2023-04-15T02:00:35;5.90;99.90
26326;DHT22;14032;52.510;7.342;2023-04-15T02:03:01;5.90;99.90
26326;DHT22;14032;52.510;7.342;2023-04-15T02:05:27;5.90;99.90
26326;DHT22;14032;52.510;7.342;2023-04-15T02:07:53;5.90;99.90
26326;DHT22;14032;52.510;7.342;2023-04-15T02:10:19;5.90;99.90
26326;DHT22;14032;52.510;7.342;2023-04-15T02:12:45;5.90;99.90
26326;DHT22;14032;52.510;7.342;2023-04-15T02:15:10;5.90;99.90
26326;DHT22;14032;52.510;7.342;2023-04-15T02:17:36;5.90;99.90
26326;DHT22;14032;52.510;7.342;2023-04-15T02:20:02;5.90;99.90
26326;DHT22;14032;52.510;7.342;2023-04-15T02:22:30;5.80;99.90
26326;DHT22;14032;52.510;7.342;2023-04-15T02:24:55;5.80;99.90
26326;DHT22;14032;52.510;7.342;2023-04-15T02:27:23;5.70;99.90
26326;DHT22;14032;52.510;7.342;2023-04-15T02:29:48;5.70;99.90
26326;DHT22;14032;52.510;7.342;2023-04-15T02:32:15;5.70;99.90
26326;DHT22;14032;52.510;7.342;2023-04-15T02:34:41;5.70;99.90
26326;DHT22;14032;52.510;7.342;2023-04-15T02:37:07;5.60;99.90
26326;DHT22;14032;52.510;7.342;2023-04-15T02:39:33;5.60;99.90
26326;DHT22;14032;52.510;7.342;2023-04-15T02:41:58;5.60;99.90
26326;DHT22;14032;52.510;7.342;2023-04-15T02:44:25;5.60;99.90
26326;DHT22;14032;52.510;7.342;2023-04-15T02:46:51;5.50;99.90
26326;DHT22;14032;52.510;7.342;2023-04-15T02:49:19;5.40;99.90
26326;DHT22;14032;52.510;7.342;2023-04-15T02:51:44;5.40;99.90
26326;DHT22;14032;52.510;7.342;2023-04-15T02:54:17;5.30;99.90
26326;DHT22;14032;52.510;7.342;2023-04-15T02:56:42;5.30;99.90
26326;DHT22;14032;52.510;7.342;2023-04-15T02:59:08;5.30;99.90
26326;DHT22;14032;52.510;7.342;2023-04-15T03:01:33;5.30;99.90
26326;DHT22;14032;52.510;7.342;2023-04-15T03:03:59;5.30;99.90
26326;DHT22;14032;52.510;7.342;2023-04-15T03:06:24;5.20;99.90
26326;DHT22;14032;52.510;7.342;2023-04-15T03:08:51;5.20;99.90
26326;DHT22;14032;52.510;7.342;2023-04-15T03:11:17;5.20;99.90
26326;DHT22;14032;52.510;7.342;2023-04-15T03:13:42;5.20;99.90
26326;DHT22;14032;52.510;7.342;2023-04-15T03:16:08;5.20;99.90
26326;DHT22;14032;52.510;7.342;2023-04-15T03:18:34;5.20;99.90
26326;DHT22;14032;52.510;7.342;2023-04-15T03:20:59;5.20;99.90
26326;DHT22;14032;52.510;7.342;2023-04-15T03:23:25;5.20;99.90
26326;DHT22;14032;52.510;7.342;2023-04-15T03:25:50;5.20;99.90
26326;DHT22;14032;52.510;7.342;2023-04-15T03:28:16;5.20;99.90
26326;DHT22;14032;52.510;7.342;2023-04-15T03:30:41;5.10;99.90
26326;DHT22;14032;52.510;7.342;2023-04-15T03:33:07;5.20;99.90
26326;DHT22;14032;52.510;7.342;2023-04-15T03:35:33;5.10;99.90
26326;DHT22;14032;52.510;7.342;2023-04-15T03:37:58;5.10;99.90
26326;DHT22;14032;52.510;7.342;2023-04-15T03:40:24;5.10;99.90
26326;DHT22;14032;52.510;7.342;2023-04-15T03:42:49;5.10;99.90
26326;DHT22;14032;52.510;7.342;2023-04-15T03:45:15;5.10;99.90
26326;DHT22;14032;52.510;7.342;2023-04-15T03:47:43;5.00;99.90
26326;DHT22;14032;52.510;7.342;2023-04-15T03:50:09;5.00;99.90
26326;DHT22;14032;52.510;7.342;2023-04-15T03:52:35;4.90;99.90
26326;DHT22;14032;52.510;7.342;2023-04-15T03:55:00;4.90;99.90
26326;DHT22;14032;52.510;7.342;2023-04-15T03:57:26;4.90;99.90
26326;DHT22;14032;52.510;7.342;2023-04-15T03:59:52;4.80;99.90
26326;DHT22;14032;52.510;7.342;2023-04-15T04:02:17;4.80;99.90
26326;DHT22;14032;52.510;7.342;2023-04-15T04:04:42;4.70;99.90
26326;DHT22;14032;52.510;7.342;2023-04-15T04:07:13;4.70;99.90
26326;DHT22;14032;52.510;7.342;2023-04-15T04:09:38;4.70;99.90
26326;DHT22;14032;52.510;7.342;2023-04-15T04:12:05;4.70;99.90
26326;DHT22;14032;52.510;7.342;2023-04-15T04:14:31;4.70;99.90
26326;DHT22;14032;52.510;7.342;2023-04-15T04:16:56;4.70;99.90
26326;DHT22;14032;52.510;7.342;2023-04-15T04:19:22;4.70;99.90
26326;DHT22;14032;52.510;7.342;2023-04-15T04:21:47;4.60;99.90
26326;DHT22;14032;52.510;7.342;2023-04-15T04:24:13;4.60;99.90
26326;DHT22;14032;52.510;7.342;2023-04-15T04:26:38;4.60;99.90
26326;DHT22;14032;52.510;7.342;2023-04-15T04:29:04;4.60;99.90
26326;DHT22;14032;52.510;7.342;2023-04-15T04:31:29;4.60;99.90
26326;DHT22;14032;52.510;7.342;2023-04-15T04:33:55;4.50;99.90
26326;DHT22;14032;52.510;7.342;2023-04-15T04:36:20;4.50;99.90
26326;DHT22;14032;52.510;7.342;2023-04-15T04:38:46;4.40;99.90
26326;DHT22;14032;52.510;7.342;2023-04-15T04:41:11;4.40;99.90
26326;DHT22;14032;52.510;7.342;2023-04-15T04:43:37;4.40;99.90
26326;DHT22;14032;52.510;7.342;2023-04-15T04:46:02;4.40;99.90
26326;DHT22;14032;52.510;7.342;2023-04-15T04:48:28;4.40;99.90
26326;DHT22;14032;52.510;7.342;2023-04-15T04:50:53;4.40;99.90
26326;DHT22;14032;52.510;7.342;2023-04-15T04:53:19;4.40;99.90
26326;DHT22;14032;52.510;7.342;2023-04-15T04:55:44;4.40;99.90
26326;DHT22;14032;52.510;7.342;2023-04-15T04:58:10;4.40;99.90
26326;DHT22;14032;52.510;7.342;2023-04-15T05:00:35;4.40;99.90
26326;DHT22;14032;52.510;7.342;2023-04-15T05:03:02;4.40;99.90
26326;DHT22;14032;52.510;7.342;2023-04-15T05:05:28;4.40;99.90
26326;DHT22;14032;52.510;7.342;2023-04-15T05:07:53;4.40;99.90
26326;DHT22;14032;52.510;7.342;2023-04-15T05:10:19;4.40;99.90
26326;DHT22;14032;52.510;7.342;2023-04-15T05:12:44;4.40;99.90
26326;DHT22;14032;52.510;7.342;2023-04-15T05:15:10;4.40;99.90
26326;DHT22;14032;52.510;7.342;2023-04-15T05:17:35;4.40;99.90
26326;DHT22;14032;52.510;7.342;2023-04-15T05:20:01;4.40;99.90
26326;DHT22;14032;52.510;7.342;2023-04-15T05:22:27;4.40;99.90
26326;DHT22;14032;52.510;7.342;2023-04-15T05:24:53;4.40;99.90
26326;DHT22;14032;52.510;7.342;2023-04-15T05:27:18;4.40;99.90
26326;DHT22;14032;52.510;7.342;2023-04-15T05:29:44;4.50;99.90
26326;DHT22;14032;52.510;7.342;2023-04-15T05:32:09;4.50;99.90
26326;DHT22;14032;52.510;7.342;2023-04-15T05:34:35;4.50;99.90
26326;DHT22;14032;52.510;7.342;2023-04-15T05:37:00;4.50;99.90
26326;DHT22;14032;52.510;7.342;2023-04-15T05:39:26;4.50;99.90
26326;DHT22;14032;52.510;7.342;2023-04-15T05:41:52;4.60;99.90
26326;DHT22;14032;52.510;7.342;2023-04-15T05:44:17;4.60;99.90
26326;DHT22;14032;52.510;7.342;2023-04-15T05:46:43;4.60;99.90
26326;DHT22;14032;52.510;7.342;2023-04-15T05:49:08;4.70;99.90
26326;DHT22;14032;52.510;7.342;2023-04-15T05:51:34;4.70;99.90
26326;DHT22;14032;52.510;7.342;2023-04-15T05:54:00;4.80;99.90
26326;DHT22;14032;52.510;7.342;2023-04-15T05:56:25;4.90;99.90
26326;DHT22;14032;52.510;7.342;2023-04-15T05:58:51;5.00;99.90
26326;DHT22;14032;52.510;7.342;2023-04-15T06:01:20;5.00;99.90
26326;DHT22;14032;52.510;7.342;2023-04-15T06:03:46;5.10;99.90
26326;DHT22;14032;52.510;7.342;2023-04-15T06:06:12;5.20;99.90
26326;DHT22;14032;52.510;7.342;2023-04-15T06:08:38;5.30;99.90
26326;DHT22;14032;52.510;7.342;2023-04-15T06:11:04;5.30;99.90
26326;DHT22;14032;52.510;7.342;2023-04-15T06:13:30;5.40;99.90
26326;DHT22;14032;52.510;7.342;2023-04-15T06:15:55;5.40;99.90
26326;DHT22;14032;52.510;7.342;2023-04-15T06:18:21;5.50;99.90
26326;DHT22;14032;52.510;7.342;2023-04-15T06:20:46;5.50;99.90
26326;DHT22;14032;52.510;7.342;2023-04-15T06:23:12;5.50;99.90
26326;DHT22;14032;52.510;7.342;2023-04-15T06:25:37;5.60;99.90
26326;DHT22;14032;52.510;7.342;2023-04-15T06:28:03;5.60;99.90
26326;DHT22;14032;52.510;7.342;2023-04-15T06:30:28;5.70;99.90
26326;DHT22;14032;52.510;7.342;2023-04-15T06:32:53;5.70;99.90
26326;DHT22;14032;52.510;7.342;2023-04-15T06:35:19;5.80;99.90
26326;DHT22;14032;52.510;7.342;2023-04-15T06:37:44;5.80;99.90
26326;DHT22;14032;52.510;7.342;2023-04-15T06:42:45;5.90;99.90
26326;DHT22;14032;52.510;7.342;2023-04-15T06:45:11;6.10;99.90
26326;DHT22;14032;52.510;7.342;2023-04-15T06:47:37;6.00;99.90
26326;DHT22;14032;52.510;7.342;2023-04-15T06:50:02;6.10;99.90
26326;DHT22;14032;52.510;7.342;2023-04-15T06:52:28;6.20;99.90
26326;DHT22;14032;52.510;7.342;2023-04-15T06:54:54;6.30;99.90
26326;DHT22;14032;52.510;7.342;2023-04-15T06:57:20;6.30;99.90
26326;DHT22;14032;52.510;7.342;2023-04-15T06:59:45;6.40;99.90
26326;DHT22;14032;52.510;7.342;2023-04-15T07:02:11;6.50;99.90
26326;DHT22;14032;52.510;7.342;2023-04-15T07:04:37;6.50;99.90
26326;DHT22;14032;52.510;7.342;2023-04-15T07:07:04;6.60;99.90
26326;DHT22;14032;52.510;7.342;2023-04-15T07:09:30;6.70;99.90
26326;DHT22;14032;52.510;7.342;2023-04-15T07:11:56;6.70;99.90
26326;DHT22;14032;52.510;7.342;2023-04-15T07:14:22;6.70;99.90
26326;DHT22;14032;52.510;7.342;2023-04-15T07:16:47;6.80;99.90
26326;DHT22;14032;52.510;7.342;2023-04-15T07:19:13;6.80;99.90
26326;DHT22;14032;52.510;7.342;2023-04-15T07:21:38;6.90;99.90
26326;DHT22;14032;52.510;7.342;2023-04-15T07:24:04;6.90;99.90
26326;DHT22;14032;52.510;7.342;2023-04-15T07:26:29;7.00;99.90
26326;DHT22;14032;52.510;7.342;2023-04-15T07:28:55;7.00;99.90
26326;DHT22;14032;52.510;7.342;2023-04-15T07:31:21;7.00;99.90
26326;DHT22;14032;52.510;7.342;2023-04-15T07:33:46;7.10;99.90
26326;DHT22;14032;52.510;7.342;2023-04-15T07:36:12;7.10;99.90
26326;DHT22;14032;52.510;7.342;2023-04-15T07:38:38;7.20;99.90
26326;DHT22;14032;52.510;7.342;2023-04-15T07:41:03;7.20;99.90
26326;DHT22;14032;52.510;7.342;2023-04-15T07:43:29;7.20;99.90
26326;DHT22;14032;52.510;7.342;2023-04-15T07:45:54;7.30;99.90
26326;DHT22;14032;52.510;7.342;2023-04-15T07:50:55;7.30;99.90
26326;DHT22;14032;52.510;7.342;2023-04-15T07:55:56;7.40;99.90
26326;DHT22;14032;52.510;7.342;2023-04-15T07:58:21;7.50;99.90
26326;DHT22;14032;52.510;7.342;2023-04-15T08:00:47;7.40;99.90
26326;DHT22;14032;52.510;7.342;2023-04-15T08:03:14;7.50;99.90
26326;DHT22;14032;52.510;7.342;2023-04-15T08:05:39;7.50;99.90
26326;DHT22;14032;52.510;7.342;2023-04-15T08:08:05;7.60;99.90
26326;DHT22;14032;52.510;7.342;2023-04-15T08:10:31;7.70;99.90
26326;DHT22;14032;52.510;7.342;2023-04-15T08:12:56;7.70;99.90
26326;DHT22;14032;52.510;7.342;2023-04-15T08:15:22;7.80;99.90
26326;DHT22;14032;52.510;7.342;2023-04-15T08:17:48;7.80;99.90
26326;DHT22;14032;52.510;7.342;2023-04-15T08:20:13;7.90;99.90
26326;DHT22;14032;52.510;7.342;2023-04-15T08:22:39;8.00;99.90
26326;DHT22;14032;52.510;7.342;2023-04-15T08:25:05;8.00;99.90
26326;DHT22;14032;52.510;7.342;2023-04-15T08:27:31;8.10;99.90
26326;DHT22;14032;52.510;7.342;2023-04-15T08:29:56;8.10;99.90
26326;DHT22;14032;52.510;7.342;2023-04-15T08:32:21;8.20;99.90
26326;DHT22;14032;52.510;7.342;2023-04-15T08:34:47;8.20;99.90
26326;DHT22;14032;52.510;7.342;2023-04-15T08:37:13;8.20;99.90
26326;DHT22;14032;52.510;7.342;2023-04-15T08:39:38;8.20;99.90
26326;DHT22;14032;52.510;7.342;2023-04-15T08:42:04;8.20;99.90
26326;DHT22;14032;52.510;7.342;2023-04-15T08:44:33;8.20;99.90
26326;DHT22;14032;52.510;7.342;2023-04-15T08:47:07;8.30;99.90
26326;DHT22;14032;52.510;7.342;2023-04-15T08:49:34;8.30;99.90
26326;DHT22;14032;52.510;7.342;2023-04-15T08:52:01;8.40;99.90
26326;DHT22;14032;52.510;7.342;2023-04-15T08:54:28;8.40;99.90
26326;DHT22;14032;52.510;7.342;2023-04-15T08:56:54;8.50;99.90
26326;DHT22;14032;52.510;7.342;2023-04-15T09:01:57;8.60;99.90
26326;DHT22;14032;52.510;7.342;2023-04-15T09:04:23;8.60;99.90
26326;DHT22;14032;52.510;7.342;2023-04-15T09:09:24;8.70;99.90
26326;DHT22;14032;52.510;7.342;2023-04-15T09:11:49;8.70;99.90
26326;DHT22;14032;52.510;7.342;2023-04-15T09:14:15;8.70;99.90
26326;DHT22;14032;52.510;7.342;2023-04-15T09:19:23;8.90;99.90
26326;DHT22;14032;52.510;7.342;2023-04-15T09:21:49;9.00;99.90
26326;DHT22;14032;52.510;7.342;2023-04-15T09:24:18;8.90;99.90
26326;DHT22;14032;52.510;7.342;2023-04-15T09:26:43;8.90;99.90
26326;DHT22;14032;52.510;7.342;2023-04-15T09:29:10;9.00;99.90
26326;DHT22;14032;52.510;7.342;2023-04-15T09:31:48;8.90;99.90
26326;DHT22;14032;52.510;7.342;2023-04-15T09:34:13;8.90;99.90
26326;DHT22;14032;52.510;7.342;2023-04-15T09:36:50;8.90;99.90
26326;DHT22;14032;52.510;7.342;2023-04-15T09:39:16;9.00;99.90
26326;DHT22;14032;52.510;7.342;2023-04-15T09:41:41;9.00;99.90
26326;DHT22;14032;52.510;7.342;2023-04-15T09:44:21;8.90;99.90
26326;DHT22;14032;52.510;7.342;2023-04-15T09:46:42;9.00;99.90
26326;DHT22;14032;52.510;7.342;2023-04-15T09:51:43;9.00;99.90
26326;DHT22;14032;52.510;7.342;2023-04-15T09:54:08;9.00;99.90
26326;DHT22;14032;52.510;7.342;2023-04-15T09:56:34;9.10;99.90
26326;DHT22;14032;52.510;7.342;2023-04-15T10:01:37;9.10;99.90
26326;DHT22;14032;52.510;7.342;2023-04-15T10:04:05;9.20;99.90
26326;DHT22;14032;52.510;7.342;2023-04-15T10:06:31;9.20;99.90
26326;DHT22;14032;52.510;7.342;2023-04-15T10:08:58;9.20;99.90
26326;DHT22;14032;52.510;7.342;2023-04-15T10:11:23;9.20;99.90
26326;DHT22;14032;52.510;7.342;2023-04-15T10:13:49;9.20;99.90
26326;DHT22;14032;52.510;7.342;2023-04-15T10:16:16;9.20;99.90
26326;DHT22;14032;52.510;7.342;2023-04-15T10:18:44;9.20;99.90
26326;DHT22;14032;52.510;7.342;2023-04-15T10:23:45;9.20;99.90
26326;DHT22;14032;52.510;7.342;2023-04-15T10:26:11;9.20;99.90
26326;DHT22;14032;52.510;7.342;2023-04-15T10:28:39;9.30;99.90
26326;DHT22;14032;52.510;7.342;2023-04-15T10:31:04;9.30;99.90
26326;DHT22;14032;52.510;7.342;2023-04-15T10:33:30;9.30;99.90
26326;DHT22;14032;52.510;7.342;2023-04-15T10:35:56;9.30;99.90
26326;DHT22;14032;52.510;7.342;2023-04-15T10:43:44;9.30;99.90
26326;DHT22;14032;52.510;7.342;2023-04-15T10:46:10;9.30;99.90
26326;DHT22;14032;52.510;7.342;2023-04-15T10:48:36;9.30;99.90
26326;DHT22;14032;52.510;7.342;2023-04-15T10:51:01;9.20;99.90
26326;DHT22;14032;52.510;7.342;2023-04-15T10:53:29;9.20;99.90
26326;DHT22;14032;52.510;7.342;2023-04-15T10:55:56;9.20;99.90
26326;DHT22;14032;52.510;7.342;2023-04-15T10:58:22;9.20;99.90
26326;DHT22;14032;52.510;7.342;2023-04-15T11:00:49;9.20;99.90
26326;DHT22;14032;52.510;7.342;2023-04-15T11:03:16;9.20;99.90
26326;DHT22;14032;52.510;7.342;2023-04-15T11:08:10;9.20;99.90
26326;DHT22;14032;52.510;7.342;2023-04-15T11:13:02;9.30;99.90
26326;DHT22;14032;52.510;7.342;2023-04-15T11:15:29;9.30;99.90
26326;DHT22;14032;52.510;7.342;2023-04-15T11:17:55;9.30;99.90
26326;DHT22;14032;52.510;7.342;2023-04-15T11:20:21;9.40;99.90
26326;DHT22;14032;52.510;7.342;2023-04-15T11:22:50;9.40;99.90
26326;DHT22;14032;52.510;7.342;2023-04-15T11:25:28;9.30;99.90
26326;DHT22;14032;52.510;7.342;2023-04-15T11:27:54;9.40;99.90
26326;DHT22;14032;52.510;7.342;2023-04-15T11:30:23;9.40;99.90
26326;DHT22;14032;52.510;7.342;2023-04-15T11:32:49;9.40;99.90
26326;DHT22;14032;52.510;7.342;2023-04-15T11:35:15;9.50;99.90
26326;DHT22;14032;52.510;7.342;2023-04-15T11:37:42;9.50;99.90
26326;DHT22;14032;52.510;7.342;2023-04-15T11:40:08;9.50;99.90
26326;DHT22;14032;52.510;7.342;2023-04-15T11:42:34;9.50;99.90
26326;DHT22;14032;52.510;7.342;2023-04-15T11:45:09;9.50;99.90
26326;DHT22;14032;52.510;7.342;2023-04-15T11:47:35;9.40;99.90
26326;DHT22;14032;52.510;7.342;2023-04-15T11:50:17;9.40;99.90
26326;DHT22;14032;52.510;7.342;2023-04-15T11:52:55;9.30;99.90
26326;DHT22;14032;52.510;7.342;2023-04-15T11:55:21;9.20;99.90
26326;DHT22;14032;52.510;7.342;2023-04-15T11:57:49;9.20;99.90
26326;DHT22;14032;52.510;7.342;2023-04-15T12:00:15;9.20;99.90
26326;DHT22;14032;52.510;7.342;2023-04-15T12:02:41;9.20;99.90
26326;DHT22;14032;52.510;7.342;2023-04-15T12:05:07;9.20;99.90
26326;DHT22;14032;52.510;7.342;2023-04-15T12:07:34;9.20;99.90
26326;DHT22;14032;52.510;7.342;2023-04-15T12:10:18;9.20;99.90
26326;DHT22;14032;52.510;7.342;2023-04-15T12:12:47;9.30;99.90
26326;DHT22;14032;52.510;7.342;2023-04-15T12:15:13;9.30;99.90
26326;DHT22;14032;52.510;7.342;2023-04-15T12:17:39;9.30;99.90
26326;DHT22;14032;52.510;7.342;2023-04-15T12:20:04;9.30;99.90
26326;DHT22;14032;52.510;7.342;2023-04-15T12:22:30;9.30;99.90
26326;DHT22;14032;52.510;7.342;2023-04-15T12:25:01;9.40;99.90
26326;DHT22;14032;52.510;7.342;2023-04-15T12:27:27;9.40;99.90
26326;DHT22;14032;52.510;7.342;2023-04-15T12:29:58;9.40;99.90
26326;DHT22;14032;52.510;7.342;2023-04-15T12:32:27;9.40;99.90
26326;DHT22;14032;52.510;7.342;2023-04-15T12:34:53;9.40;99.90
26326;DHT22;14032;52.510;7.342;2023-04-15T12:37:19;9.30;99.90
26326;DHT22;14032;52.510;7.342;2023-04-15T12:39:46;9.30;99.90
26326;DHT22;14032;52.510;7.342;2023-04-15T12:42:13;9.30;99.90
26326;DHT22;14032;52.510;7.342;2023-04-15T12:44:39;9.30;99.90
26326;DHT22;14032;52.510;7.342;2023-04-15T12:47:05;9.20;99.90
26326;DHT22;14032;52.510;7.342;2023-04-15T12:49:31;9.20;99.90
26326;DHT22;14032;52.510;7.342;2023-04-15T12:51:57;9.30;99.90
26326;DHT22;14032;52.510;7.342;2023-04-15T12:54:26;9.20;99.90
26326;DHT22;14032;52.510;7.342;2023-04-15T12:56:53;9.20;99.90
26326;DHT22;14032;52.510;7.342;2023-04-15T12:59:19;9.10;99.90
26326;DHT22;14032;52.510;7.342;2023-04-15T13:01:45;9.10;99.90
26326;DHT22;14032;52.510;7.342;2023-04-15T13:04:10;9.10;99.90
26326;DHT22;14032;52.510;7.342;2023-04-15T13:06:36;9.10;99.90
26326;DHT22;14032;52.510;7.342;2023-04-15T13:09:02;9.00;99.90
26326;DHT22;14032;52.510;7.342;2023-04-15T13:11:28;9.00;99.90
26326;DHT22;14032;52.510;7.342;2023-04-15T13:13:56;9.00;99.90
26326;DHT22;14032;52.510;7.342;2023-04-15T13:16:22;9.00;99.90
26326;DHT22;14032;52.510;7.342;2023-04-15T13:18:48;9.00;99.90
26326;DHT22;14032;52.510;7.342;2023-04-15T13:21:13;9.00;99.90
26326;DHT22;14032;52.510;7.342;2023-04-15T13:23:40;9.00;99.90
26326;DHT22;14032;52.510;7.342;2023-04-15T13:26:05;8.90;99.90
26326;DHT22;14032;52.510;7.342;2023-04-15T13:28:31;8.90;99.90
26326;DHT22;14032;52.510;7.342;2023-04-15T13:30:56;8.90;99.90
26326;DHT22;14032;52.510;7.342;2023-04-15T13:33:22;8.90;99.90
26326;DHT22;14032;52.510;7.342;2023-04-15T13:35:47;8.90;99.90
26326;DHT22;14032;52.510;7.342;2023-04-15T13:38:13;8.80;99.90
26326;DHT22;14032;52.510;7.342;2023-04-15T13:40:38;8.80;99.90
26326;DHT22;14032;52.510;7.342;2023-04-15T13:43:04;8.70;99.90
26326;DHT22;14032;52.510;7.342;2023-04-15T13:45:30;8.70;99.90
26326;DHT22;14032;52.510;7.342;2023-04-15T13:47:55;8.70;99.90
26326;DHT22;14032;52.510;7.342;2023-04-15T13:50:21;8.70;99.90
26326;DHT22;14032;52.510;7.342;2023-04-15T13:52:47;8.70;99.90
26326;DHT22;14032;52.510;7.342;2023-04-15T13:55:12;8.60;99.90
26326;DHT22;14032;52.510;7.342;2023-04-15T13:57:38;8.60;99.90
26326;DHT22;14032;52.510;7.342;2023-04-15T14:00:04;8.50;99.90
26326;DHT22;14032;52.510;7.342;2023-04-15T14:02:30;8.60;99.90
26326;DHT22;14032;52.510;7.342;2023-04-15T14:04:55;8.60;99.90
26326;DHT22;14032;52.510;7.342;2023-04-15T14:07:21;8.60;99.90
26326;DHT22;14032;52.510;7.342;2023-04-15T14:09:47;8.60;99.90
26326;DHT22;14032;52.510;7.342;2023-04-15T14:12:12;8.60;99.90
26326;DHT22;14032;52.510;7.342;2023-04-15T14:14:38;8.50;99.90
26326;DHT22;14032;52.510;7.342;2023-04-15T14:17:03;8.50;99.90
26326;DHT22;14032;52.510;7.342;2023-04-15T14:19:29;8.50;99.90
26326;DHT22;14032;52.510;7.342;2023-04-15T14:21:55;8.50;99.90
26326;DHT22;14032;52.510;7.342;2023-04-15T14:24:21;8.50;99.90
26326;DHT22;14032;52.510;7.342;2023-04-15T14:26:46;8.50;99.90
26326;DHT22;14032;52.510;7.342;2023-04-15T14:29:12;8.40;99.90
26326;DHT22;14032;52.510;7.342;2023-04-15T14:31:37;8.40;99.90
26326;DHT22;14032;52.510;7.342;2023-04-15T14:34:04;8.40;99.90
26326;DHT22;14032;52.510;7.342;2023-04-15T14:36:30;8.40;99.90
26326;DHT22;14032;52.510;7.342;2023-04-15T14:38:56;8.40;99.90
26326;DHT22;14032;52.510;7.342;2023-04-15T14:41:21;8.40;99.90
26326;DHT22;14032;52.510;7.342;2023-04-15T14:43:47;8.30;99.90
26326;DHT22;14032;52.510;7.342;2023-04-15T14:46:13;8.30;99.90
26326;DHT22;14032;52.510;7.342;2023-04-15T14:48:38;8.30;99.90
26326;DHT22;14032;52.510;7.342;2023-04-15T14:51:04;8.30;99.90
26326;DHT22;14032;52.510;7.342;2023-04-15T14:53:30;8.30;99.90
26326;DHT22;14032;52.510;7.342;2023-04-15T14:55:55;8.30;99.90
26326;DHT22;14032;52.510;7.342;2023-04-15T14:58:21;8.30;99.90
26326;DHT22;14032;52.510;7.342;2023-04-15T15:00:46;8.30;99.90
26326;DHT22;14032;52.510;7.342;2023-04-15T15:03:12;8.30;99.90
26326;DHT22;14032;52.510;7.342;2023-04-15T15:05:38;8.30;99.90
26326;DHT22;14032;52.510;7.342;2023-04-15T15:08:05;8.30;99.90
26326;DHT22;14032;52.510;7.342;2023-04-15T15:10:30;8.30;99.90
26326;DHT22;14032;52.510;7.342;2023-04-15T15:12:56;8.30;99.90
26326;DHT22;14032;52.510;7.342;2023-04-15T15:15:21;8.30;99.90
26326;DHT22;14032;52.510;7.342;2023-04-15T15:17:47;8.30;99.90
26326;DHT22;14032;52.510;7.342;2023-04-15T15:20:12;8.30;99.90
26326;DHT22;14032;52.510;7.342;2023-04-15T15:22:39;8.30;99.90
26326;DHT22;14032;52.510;7.342;2023-04-15T15:25:04;8.30;99.90
26326;DHT22;14032;52.510;7.342;2023-04-15T15:27:30;8.30;99.90
26326;DHT22;14032;52.510;7.342;2023-04-15T15:29:55;8.40;99.90
26326;DHT22;14032;52.510;7.342;2023-04-15T15:32:21;8.30;99.90
26326;DHT22;14032;52.510;7.342;2023-04-15T15:34:46;8.30;99.90
26326;DHT22;14032;52.510;7.342;2023-04-15T15:37:12;8.30;99.90
26326;DHT22;14032;52.510;7.342;2023-04-15T15:39:37;8.30;99.90
26326;DHT22;14032;52.510;7.342;2023-04-15T15:42:03;8.30;99.90
26326;DHT22;14032;52.510;7.342;2023-04-15T15:44:28;8.30;99.90
26326;DHT22;14032;52.510;7.342;2023-04-15T15:46:54;8.30;99.90
26326;DHT22;14032;52.510;7.342;2023-04-15T15:49:19;8.40;99.90
26326;DHT22;14032;52.510;7.342;2023-04-15T15:51:44;8.30;99.90
26326;DHT22;14032;52.510;7.342;2023-04-15T15:54:10;8.30;99.90
26326;DHT22;14032;52.510;7.342;2023-04-15T15:56:36;8.30;99.90
26326;DHT22;14032;52.510;7.342;2023-04-15T15:59:03;8.30;99.90
26326;DHT22;14032;52.510;7.342;2023-04-15T16:01:29;8.30;99.90
26326;DHT22;14032;52.510;7.342;2023-04-15T16:03:54;8.30;99.90
26326;DHT22;14032;52.510;7.342;2023-04-15T16:06:19;8.30;99.90
26326;DHT22;14032;52.510;7.342;2023-04-15T16:08:45;8.40;99.90
26326;DHT22;14032;52.510;7.342;2023-04-15T16:11:10;8.40;99.90